createdAt,value
2022-09-01T00:00:36.856Z,103092.75
2022-09-01T00:04:00.931Z,103089.97
2022-09-01T00:07:23.861Z,103081.56
2022-09-01T00:10:47.881Z,103080.28
2022-09-01T00:14:29.907Z,103075.78
2022-09-01T00:17:55.877Z,103070.16
2022-09-01T00:21:19.891Z,103077.38
2022-09-01T00:24:44.907Z,103066.47
2022-09-01T00:28:06.305Z,103059.72
2022-09-01T00:31:23.924Z,103046.97
2022-09-01T00:34:47.862Z,103045.88
2022-09-01T00:38:12.867Z,103041.19
2022-09-01T00:41:40.820Z,103030.31
2022-09-01T00:45:04.906Z,103024.47
2022-09-01T00:48:29.834Z,103017.75
2022-09-01T00:51:55.865Z,103020.91
2022-09-01T00:55:40.868Z,103009.50
2022-09-01T00:59:04.913Z,103003.81
2022-09-01T01:02:28.943Z,103001.06
2022-09-01T01:05:57.906Z,102991.72
2022-09-01T01:09:15.862Z,102989.47
2022-09-01T01:12:40.885Z,102991.34
2022-09-01T01:16:05.865Z,102990.81
2022-09-01T01:20:15.851Z,102987.34
2022-09-01T01:23:56.876Z,102983.75
2022-09-01T01:27:14.924Z,102976.03
2022-09-01T01:30:35.921Z,102971.91
2022-09-01T01:34:13.853Z,102971.78
2022-09-01T01:37:37.878Z,102958.78
2022-09-01T01:41:03.841Z,102957.13
2022-09-01T01:44:28.940Z,102957.22
2022-09-01T01:47:55.910Z,102955.19
2022-09-01T01:51:21.901Z,102948.25
2022-09-01T01:54:45.888Z,102947.75
2022-09-01T01:58:12.921Z,102939.84
2022-09-01T02:01:39.905Z,102937.06
2022-09-01T02:05:03.943Z,102931.97
2022-09-01T02:08:30.876Z,102923.16
2022-09-01T02:11:54.903Z,102924.09
2022-09-01T02:15:20.932Z,102925.50
2022-09-01T02:18:50.898Z,102927.38
2022-09-01T02:22:13.920Z,102923.09
2022-09-01T02:25:45.870Z,102917.16
2022-09-01T02:29:28.960Z,102928.09
2022-09-01T02:32:52.872Z,102924.69
2022-09-01T02:36:20.923Z,102921.88
2022-09-01T02:39:46.912Z,102918.56
2022-09-01T02:43:13.957Z,102922.81
2022-09-01T02:46:38.880Z,102917.78
2022-09-01T02:50:06.909Z,102910.69
2022-09-01T02:53:30.868Z,102912.13
2022-09-01T02:56:55.956Z,102908.72
2022-09-01T03:00:30.949Z,102910.00
2022-09-01T03:03:54.922Z,102904.31
2022-09-01T03:07:21.924Z,102905.38
2022-09-01T03:10:50.913Z,102905.16
2022-09-01T03:14:14.944Z,102908.81
2022-09-01T03:17:39.970Z,102901.41
2022-09-01T03:21:05.966Z,102899.84
2022-09-01T03:24:32.890Z,102896.59
2022-09-01T03:27:49.941Z,102896.25
2022-09-01T03:31:14.030Z,102908.91
2022-09-01T03:34:41.906Z,102904.44
2022-09-01T03:38:06.981Z,102909.63
2022-09-01T03:41:32.948Z,102899.69
2022-09-01T03:44:52.931Z,102897.16
2022-09-01T03:48:17.030Z,102899.66
2022-09-01T03:51:41.933Z,102892.53
2022-09-01T03:55:06.958Z,102883.06
2022-09-01T03:58:32.967Z,102897.28
2022-09-01T04:01:56.976Z,102900.81
2022-09-01T04:05:42.005Z,102892.38
2022-09-01T04:09:10.948Z,102890.97
2022-09-01T04:12:33.951Z,102883.56
2022-09-01T04:15:57.953Z,102888.19
2022-09-01T04:19:27.975Z,102888.66
2022-09-01T04:22:54.999Z,102877.00
2022-09-01T04:26:22.933Z,102880.75
2022-09-01T04:29:47.024Z,102877.13
2022-09-01T04:33:07.519Z,102894.03
2022-09-01T04:36:34.959Z,102874.31
2022-09-01T04:40:03.968Z,102887.91
2022-09-01T04:43:28.091Z,102891.50
2022-09-01T04:46:55.982Z,102888.59
2022-09-01T04:50:21.940Z,102890.63
2022-09-01T04:54:04.936Z,102890.44
2022-09-01T04:57:29.946Z,102897.59
2022-09-01T05:00:56.133Z,102893.59
2022-09-01T05:04:21.987Z,102894.47
2022-09-01T05:07:45.984Z,102890.81
2022-09-01T05:11:09.993Z,102894.44
2022-09-01T05:14:36.991Z,102899.44
2022-09-01T05:18:05.985Z,102899.47
2022-09-01T05:21:33.990Z,102891.91
2022-09-01T05:24:58.983Z,102911.72
2022-09-01T05:28:22.982Z,102909.22
2022-09-01T05:31:46.081Z,102912.97
2022-09-01T05:35:04.642Z,102904.44
2022-09-01T05:38:24.027Z,102906.84
2022-09-01T05:41:48.999Z,102912.28
2022-09-01T05:45:06.983Z,102912.81
2022-09-01T05:48:31.994Z,102922.22
2022-09-01T05:52:00.996Z,102922.31
2022-09-01T05:55:25.957Z,102926.63
2022-09-01T06:02:42.104Z,102922.72
2022-09-01T06:06:10.993Z,102922.94
2022-09-01T06:09:36.037Z,102932.94
2022-09-01T06:13:00.996Z,102923.97
2022-09-01T06:16:28.040Z,102926.88
2022-09-01T06:19:55.039Z,102929.59
2022-09-01T06:23:23.054Z,102929.16
2022-09-01T06:26:50.008Z,102935.00
2022-09-01T06:30:24.411Z,102917.91
2022-09-01T06:33:54.966Z,102932.09
2022-09-01T06:37:19.051Z,102936.25
2022-09-01T06:40:51.045Z,102942.91
2022-09-01T06:44:14.341Z,102943.75
2022-09-01T06:47:45.003Z,102936.88
2022-09-01T06:51:17.141Z,102947.13
2022-09-01T06:54:49.047Z,102955.63
2022-09-01T06:58:15.039Z,102953.56
2022-09-01T07:01:42.191Z,102960.63
2022-09-01T07:05:08.012Z,102960.03
2022-09-01T07:08:32.106Z,102959.22
2022-09-01T07:12:24.346Z,102958.13
2022-09-01T07:19:50.748Z,102964.94
2022-09-01T07:23:16.051Z,102960.72
2022-09-01T07:26:47.506Z,102965.31
2022-09-01T07:30:13.094Z,102959.00
2022-09-01T07:33:44.252Z,102969.41
2022-09-01T07:38:46.914Z,102969.88
2022-09-01T07:44:39.037Z,102966.03
2022-09-01T07:52:11.994Z,102961.84
2022-09-01T07:55:40.075Z,102968.06
2022-09-01T07:59:07.024Z,102975.13
2022-09-01T08:02:41.110Z,102971.75
2022-09-01T08:06:09.009Z,102974.63
2022-09-01T08:09:37.501Z,102970.91
2022-09-01T08:13:05.054Z,102977.09
2022-09-01T08:16:39.406Z,102971.03
2022-09-01T08:20:04.069Z,102972.41
2022-09-01T08:23:56.044Z,102971.78
2022-09-01T08:27:22.034Z,102968.00
2022-09-01T08:30:52.416Z,102965.94
2022-09-01T08:34:17.121Z,102968.78
2022-09-01T08:37:42.066Z,102959.66
2022-09-01T08:41:11.043Z,102962.50
2022-09-01T08:44:54.112Z,102956.91
2022-09-01T08:49:18.518Z,102958.84
2022-09-01T08:52:18.095Z,102956.47
2022-09-01T08:55:59.039Z,102957.84
2022-09-01T08:59:24.070Z,102955.81
2022-09-01T09:03:40.498Z,102954.16
2022-09-01T09:07:19.090Z,102962.66
2022-09-01T09:10:52.026Z,102960.16
2022-09-01T09:14:33.179Z,102964.72
2022-09-01T09:18:20.190Z,102967.81
2022-09-01T09:21:58.136Z,102966.78
2022-09-01T09:25:32.110Z,102963.03
2022-09-01T09:28:58.071Z,102963.69
2022-09-01T09:32:35.163Z,102959.63
2022-09-01T09:36:05.099Z,102963.53
2022-09-01T09:39:32.096Z,102968.06
2022-09-01T09:43:17.269Z,102964.72
2022-09-01T09:46:47.072Z,102968.84
2022-09-01T09:50:26.089Z,102952.13
2022-09-01T09:53:51.155Z,102970.00
2022-09-01T09:57:33.214Z,102965.97
2022-09-01T10:01:17.696Z,102967.97
2022-09-01T10:04:55.707Z,102965.63
2022-09-01T10:08:24.076Z,102951.38
2022-09-01T10:11:57.256Z,102955.16
2022-09-01T10:15:24.081Z,102953.91
2022-09-01T10:19:00.153Z,102951.44
2022-09-01T10:22:24.097Z,102945.97
2022-09-01T10:25:49.123Z,102947.06
2022-09-01T10:29:22.057Z,102948.06
2022-09-01T10:32:55.992Z,102943.06
2022-09-01T10:36:25.067Z,102938.03
2022-09-01T10:39:51.685Z,102938.72
2022-09-01T10:43:51.094Z,102930.59
2022-09-01T10:47:42.172Z,102927.06
2022-09-01T10:51:35.363Z,102930.34
2022-09-01T10:55:05.122Z,102925.13
2022-09-01T11:02:35.888Z,102917.13
2022-09-01T11:06:13.650Z,102918.25
2022-09-01T11:09:48.132Z,102913.19
2022-09-01T11:13:24.110Z,102913.13
2022-09-01T11:16:55.133Z,102911.06
2022-09-01T11:20:27.130Z,102905.22
2022-09-01T11:23:52.747Z,102903.88
2022-09-01T11:27:18.128Z,102905.09
2022-09-01T11:31:06.173Z,102906.50
2022-09-01T11:34:37.245Z,102908.31
2022-09-01T11:38:05.119Z,102910.81
2022-09-01T11:41:36.743Z,102898.94
2022-09-01T11:45:08.193Z,102905.66
2022-09-01T11:48:35.243Z,102904.06
2022-09-01T11:52:03.128Z,102901.44
2022-09-01T11:55:26.151Z,102905.03
2022-09-01T11:58:51.104Z,102900.94
2022-09-01T12:02:15.449Z,102909.75
2022-09-01T12:05:49.218Z,102905.31
2022-09-01T12:09:18.181Z,102903.53
2022-09-01T12:12:47.119Z,102909.81
2022-09-01T12:16:22.158Z,102912.41
2022-09-01T12:19:50.173Z,102906.88
2022-09-01T12:23:18.188Z,102908.41
2022-09-01T12:26:46.182Z,102906.41
2022-09-01T12:30:11.173Z,102896.38
2022-09-01T12:33:35.317Z,102904.47
2022-09-01T12:36:59.217Z,102902.91
2022-09-01T12:40:39.234Z,102874.81
2022-09-01T12:44:03.227Z,102904.03
2022-09-01T12:47:32.314Z,102898.00
2022-09-01T12:51:01.115Z,102887.97
2022-09-01T12:54:24.171Z,102897.69
2022-09-01T12:57:56.131Z,102895.34
2022-09-01T13:01:26.307Z,102889.78
2022-09-01T13:04:50.157Z,102896.44
2022-09-01T13:08:22.154Z,102902.69
2022-09-01T13:15:31.139Z,102900.44
2022-09-01T13:19:11.663Z,102888.44
2022-09-01T13:22:36.142Z,102898.91
2022-09-01T13:26:00.191Z,102903.53
2022-09-01T13:29:25.214Z,102893.06
2022-09-01T13:36:52.149Z,102892.94
2022-09-01T13:40:23.243Z,102888.03
2022-09-01T13:43:41.242Z,102888.16
2022-09-01T13:46:59.698Z,102890.41
2022-09-01T13:51:12.928Z,102886.81
2022-09-01T13:54:12.167Z,102888.34
2022-09-01T13:57:36.866Z,102882.81
2022-09-01T14:01:02.267Z,102878.78
2022-09-01T14:04:28.239Z,102868.91
2022-09-01T14:07:52.211Z,102869.06
2022-09-01T14:11:17.199Z,102863.13
2022-09-01T14:18:25.210Z,102853.13
2022-09-01T14:21:49.213Z,102843.16
2022-09-01T14:25:14.211Z,102845.25
2022-09-01T14:28:39.190Z,102845.75
2022-09-01T14:32:05.228Z,102836.25
2022-09-01T14:35:33.215Z,102839.63
2022-09-01T14:38:58.386Z,102841.50
2022-09-01T14:42:23.229Z,102835.66
2022-09-01T14:45:47.251Z,102837.28
2022-09-01T14:49:12.190Z,102836.56
2022-09-01T14:52:35.325Z,102829.50
2022-09-01T14:56:00.206Z,102837.22
2022-09-01T14:59:27.221Z,102825.41
2022-09-01T15:02:51.190Z,102823.56
2022-09-01T15:06:15.235Z,102812.84
2022-09-01T15:09:40.230Z,102811.78
2022-09-01T15:13:04.245Z,102806.22
2022-09-01T15:16:36.186Z,102802.78
2022-09-01T15:20:00.332Z,102805.69
2022-09-01T15:23:25.203Z,102797.47
2022-09-01T15:26:52.239Z,102784.03
2022-09-01T15:30:22.281Z,102784.03
2022-09-01T15:33:47.278Z,102783.31
2022-09-01T15:37:11.224Z,102782.03
2022-09-01T15:40:35.283Z,102782.88
2022-09-01T15:43:59.228Z,102789.09
2022-09-01T15:47:24.267Z,102776.09
2022-09-01T15:50:48.205Z,102782.13
2022-09-01T15:54:18.254Z,102778.25
2022-09-01T15:57:41.237Z,102779.66
2022-09-01T16:01:06.302Z,102791.25
2022-09-01T16:04:32.262Z,102799.66
2022-09-01T16:11:25.249Z,102813.53
2022-09-01T16:14:50.262Z,102808.63
2022-09-01T16:19:05.225Z,102808.00
2022-09-01T16:22:46.282Z,102814.69
2022-09-01T16:26:10.246Z,102809.47
2022-09-01T16:29:59.258Z,102808.84
2022-09-01T16:33:28.339Z,102801.69
2022-09-01T16:36:54.198Z,102809.38
2022-09-01T16:40:31.279Z,102809.03
2022-09-01T16:44:21.251Z,102815.44
2022-09-01T16:48:27.248Z,102817.19
2022-09-01T16:52:00.279Z,102816.44
2022-09-01T16:55:36.256Z,102819.34
2022-09-01T16:59:24.284Z,102822.31
2022-09-01T17:03:00.256Z,102814.47
2022-09-01T17:06:32.256Z,102821.56
2022-09-01T17:10:06.235Z,102817.84
2022-09-01T17:13:46.427Z,102810.69
2022-09-01T17:17:25.249Z,102813.28
2022-09-01T17:20:57.862Z,102822.56
2022-09-01T17:24:23.267Z,102822.38
2022-09-01T17:27:57.386Z,102819.31
2022-09-01T17:31:30.320Z,102817.84
2022-09-01T17:35:24.254Z,102826.84
2022-09-01T17:39:15.286Z,102827.69
2022-09-01T17:42:48.242Z,102830.91
2022-09-01T17:46:42.345Z,102833.53
2022-09-01T17:50:56.887Z,102830.38
2022-09-01T17:54:45.289Z,102830.84
2022-09-01T17:58:18.227Z,102829.81
2022-09-01T18:01:55.424Z,102828.16
2022-09-01T18:05:27.317Z,102831.75
2022-09-01T18:09:05.295Z,102833.91
2022-09-01T18:12:33.263Z,102834.06
2022-09-01T18:16:06.306Z,102835.38
2022-09-01T18:19:38.266Z,102837.13
2022-09-01T18:23:23.282Z,102831.94
2022-09-01T18:26:49.256Z,102838.53
2022-09-01T18:30:13.264Z,102839.28
2022-09-01T18:34:12.260Z,102841.03
2022-09-01T18:37:51.296Z,102838.53
2022-09-01T18:42:00.297Z,102836.50
2022-09-01T18:46:05.330Z,102836.50
2022-09-01T18:49:45.288Z,102831.03
2022-09-01T18:53:12.303Z,102842.44
2022-09-01T18:56:57.254Z,102841.16
2022-09-01T19:00:30.748Z,102839.84
2022-09-01T19:04:10.056Z,102838.53
2022-09-01T19:07:38.324Z,102837.16
2022-09-01T19:11:24.496Z,102845.41
2022-09-01T19:15:00.323Z,102846.25
2022-09-01T19:19:02.341Z,102843.75
2022-09-01T19:22:32.279Z,102852.47
2022-09-01T19:26:05.300Z,102845.69
2022-09-01T19:29:40.302Z,102851.44
2022-09-01T19:33:07.269Z,102851.72
2022-09-01T19:37:01.319Z,102857.38
2022-09-01T19:40:26.359Z,102854.34
2022-09-01T19:43:51.328Z,102868.03
2022-09-01T19:47:56.298Z,102869.09
2022-09-01T19:51:45.303Z,102863.69
2022-09-01T19:55:12.842Z,102871.78
2022-09-01T19:58:44.330Z,102871.97
2022-09-01T20:02:17.345Z,102876.72
2022-09-01T20:05:53.315Z,102861.75
2022-09-01T20:09:34.698Z,102868.56
2022-09-01T20:13:40.301Z,102857.47
2022-09-01T20:17:10.291Z,102868.91
2022-09-01T20:20:41.381Z,102859.44
2022-09-01T20:24:23.340Z,102853.06
2022-09-01T20:27:58.353Z,102849.56
2022-09-01T20:31:58.292Z,102839.59
2022-09-01T20:35:31.735Z,102842.94
2022-09-01T20:39:42.298Z,102828.28
2022-09-01T20:43:31.356Z,102831.84
2022-09-01T20:46:55.328Z,102834.25
2022-09-01T20:50:26.347Z,102838.97
2022-09-01T20:54:08.070Z,102839.00
2022-09-01T20:58:00.370Z,102833.97
2022-09-01T21:01:33.354Z,102840.34
2022-09-01T21:05:04.384Z,102826.50
2022-09-01T21:08:53.467Z,102821.22
2022-09-01T21:12:24.308Z,102812.66
2022-09-01T21:16:00.336Z,102816.50
2022-09-01T21:19:54.362Z,102812.91
2022-09-01T21:23:18.384Z,102810.59
2022-09-01T21:26:42.334Z,102807.41
2022-09-01T21:30:17.335Z,102811.59
2022-09-01T21:33:43.374Z,102805.28
2022-09-01T21:37:07.355Z,102789.97
2022-09-01T21:40:32.411Z,102786.81
2022-09-01T21:43:59.342Z,102778.81
2022-09-01T21:47:23.376Z,102780.44
2022-09-01T21:50:48.389Z,102783.00
2022-09-01T21:54:12.342Z,102784.69
2022-09-01T21:57:37.399Z,102783.00
2022-09-01T22:01:03.374Z,102772.66
2022-09-01T22:04:27.393Z,102772.28
2022-09-01T22:07:53.404Z,102765.63
2022-09-01T22:11:17.364Z,102770.09
2022-09-01T22:14:42.370Z,102765.69
2022-09-01T22:18:08.362Z,102762.16
2022-09-01T22:21:32.411Z,102762.53
2022-09-01T22:24:56.367Z,102753.28
2022-09-01T22:28:21.383Z,102755.25
2022-09-01T22:31:47.319Z,102748.31
2022-09-01T22:35:12.407Z,102753.75
2022-09-01T22:38:38.329Z,102744.16
2022-09-01T22:42:03.420Z,102740.09
2022-09-01T22:45:29.407Z,102744.53
2022-09-01T22:48:54.378Z,102731.94
2022-09-01T22:52:18.352Z,102739.97
2022-09-01T22:55:42.731Z,102725.09
2022-09-01T22:59:10.408Z,102738.81
2022-09-01T23:02:35.449Z,102725.84
2022-09-01T23:05:59.360Z,102724.66
2022-09-01T23:09:23.414Z,102721.59
2022-09-01T23:12:47.408Z,102722.16
2022-09-01T23:16:12.497Z,102724.75
2022-09-01T23:19:37.368Z,102722.75
2022-09-01T23:23:01.422Z,102723.00
2022-09-01T23:26:27.395Z,102719.03
2022-09-01T23:29:51.395Z,102725.34
2022-09-01T23:33:14.438Z,102716.41
2022-09-01T23:36:41.397Z,102719.53
2022-09-01T23:40:05.505Z,102713.09
2022-09-01T23:43:30.355Z,102695.16
2022-09-01T23:46:58.435Z,102705.25
2022-09-01T23:50:22.380Z,102698.84
2022-09-01T23:53:48.407Z,102692.78
2022-09-01T23:57:06.178Z,102684.47
